Time;durP1;ratioP1;P1;durP2;ratioP2;P2;SDS_P1;SDS_P2;PMS_P1;PMS_P2;Temp;Humidity;BMP_temperature;BMP_pressure;BME280_temperature;BME280_humidity;BME280_pressure;Samples;Min_cycle;Max_cycle;Signal;HPM_P1;HPM_P2
2022/06/09 00:01:06;;;;;;;17.73;10.77;;;;;;;;;;7331102;19;153541;-15
2022/06/09 00:03:45;;;;;;;16.95;10.82;;;;;;;;;;7332996;19;161955;-15
2022/06/09 00:06:17;;;;;;;14.82;10.77;;;;;;;;;;7330803;19;162462;-15
2022/06/09 00:08:52;;;;;;;14.98;10.10;;;;;;;;;;7331282;19;154053;-15
2022/06/09 00:11:27;;;;;;;15.52;10.75;;;;;;;;;;7329712;19;153549;-15
2022/06/09 00:13:59;;;;;;;15.48;10.70;;;;;;;;;;7330603;19;161816;-15
2022/06/09 00:16:33;;;;;;;13.40;10.27;;;;;;;;;;7330742;19;162279;-14
2022/06/09 00:19:06;;;;;;;17.85;11.75;;;;;;;;;;7330897;19;154082;-15
2022/06/09 00:21:38;;;;;;;14.60;9.77;;;;;;;;;;7330930;19;153579;-15
2022/06/09 00:24:09;;;;;;;16.20;10.00;;;;;;;;;;7329234;19;161921;-15
2022/06/09 00:26:41;;;;;;;13.88;9.85;;;;;;;;;;7330389;19;162690;-14
2022/06/09 00:29:12;;;;;;;14.30;10.05;;;;;;;;;;7329360;19;154345;-15
2022/06/09 00:31:46;;;;;;;14.77;10.20;;;;;;;;;;7328741;19;153633;-15
2022/06/09 00:34:17;;;;;;;18.27;10.75;;;;;;;;;;7330065;19;162570;-15
2022/06/09 00:36:48;;;;;;;14.45;10.23;;;;;;;;;;7329936;19;162361;-15
2022/06/09 00:39:20;;;;;;;16.70;9.93;;;;;;;;;;7330598;19;154093;-15
2022/06/09 00:41:51;;;;;;;13.32;9.27;;;;;;;;;;7331318;19;153577;-15
2022/06/09 00:44:26;;;;;;;13.70;9.25;;;;;;;;;;7329753;19;162027;-15
2022/06/09 00:47:03;;;;;;;16.02;9.98;;;;;;;;;;7328487;19;162444;-15
2022/06/09 00:49:38;;;;;;;15.73;10.57;;;;;;;;;;7330009;19;154156;-15
2022/06/09 00:52:13;;;;;;;15.13;9.32;;;;;;;;;;7327803;19;153614;-15
2022/06/09 00:54:48;;;;;;;13.05;9.25;;;;;;;;;;7327362;19;161961;-15
2022/06/09 00:57:22;;;;;;;13.02;9.43;;;;;;;;;;7329542;19;162738;-15
2022/06/09 00:59:57;;;;;;;13.70;9.30;;;;;;;;;;7329792;19;154027;-15
2022/06/09 01:02:32;;;;;;;13.63;9.48;;;;;;;;;;7329646;19;153522;-15
2022/06/09 01:05:06;;;;;;;13.93;10.40;;;;;;;;;;7329122;19;162000;-15
2022/06/09 01:07:38;;;;;;;;;;;;;;;;;;7328873;19;162424;-15
2022/06/09 01:10:10;;;;;;;15.40;9.67;;;;;;;;;;7329484;19;154222;-15
2022/06/09 01:12:45;;;;;;;14.93;10.20;;;;;;;;;;7329836;19;153763;-15
2022/06/09 01:15:18;;;;;;;14.00;9.50;;;;;;;;;;7329017;19;161847;-15
2022/06/09 01:17:59;;;;;;;13.95;10.20;;;;;;;;;;7328971;19;162078;-18
2022/06/09 01:20:39;;;;;;;13.30;9.18;;;;;;;;;;7329430;19;154075;-17
2022/06/09 01:23:45;;;;;;;16.35;9.75;;;;;;;;;;7329151;19;153727;-18
2022/06/09 01:26:37;;;;;;;15.82;10.43;;;;;;;;;;7328475;19;162173;-17
2022/06/09 01:29:31;;;;;;;13.48;9.60;;;;;;;;;;7327477;19;163293;-17
2022/06/09 01:32:08;;;;;;;11.75;8.68;;;;;;;;;;7326118;19;154100;-14
2022/06/09 01:34:45;;;;;;;12.90;8.90;;;;;;;;;;7328800;19;153583;-17
2022/06/09 01:37:18;;;;;;;11.48;9.07;;;;;;;;;;7328226;19;161829;-17
2022/06/09 01:39:52;;;;;;;12.43;9.48;;;;;;;;;;7328118;19;162391;-17
2022/06/09 01:42:26;;;;;;;12.55;8.57;;;;;;;;;;7330524;19;154311;-17
2022/06/09 01:45:01;;;;;;;14.00;9.85;;;;;;;;;;7328203;19;153643;-18
2022/06/09 01:47:44;;;;;;;12.68;8.32;;;;;;;;;;7327790;19;161833;-17
2022/06/09 01:50:21;;;;;;;11.65;8.75;;;;;;;;;;7327784;19;162333;-17
2022/06/09 01:52:54;;;;;;;12.05;9.07;;;;;;;;;;7326108;19;154123;-18
2022/06/09 01:55:26;;;;;;;12.10;8.30;;;;;;;;;;7325136;19;153628;-17
2022/06/09 01:58:00;;;;;;;12.60;8.57;;;;;;;;;;7326343;19;162057;-18
2022/06/09 02:00:33;;;;;;;13.38;8.48;;;;;;;;;;7327134;19;162346;-17
2022/06/09 02:03:10;;;;;;;11.40;8.80;;;;;;;;;;7327456;19;154184;-18
2022/06/09 02:05:45;;;;;;;11.55;8.77;;;;;;;;;;7326551;19;153566;-18
2022/06/09 02:08:19;;;;;;;13.38;8.82;;;;;;;;;;7327806;19;161828;-18
2022/06/09 02:10:55;;;;;;;11.07;7.60;;;;;;;;;;7327029;19;162380;-17
2022/06/09 02:13:29;;;;;;;11.35;8.63;;;;;;;;;;7329267;19;153970;-16
2022/06/09 02:16:03;;;;;;;10.48;8.18;;;;;;;;;;7326117;19;153604;-17
2022/06/09 02:18:41;;;;;;;11.63;8.43;;;;;;;;;;7326809;19;161815;-17
2022/06/09 02:21:15;;;;;;;10.95;7.65;;;;;;;;;;7332728;19;162551;-16
2022/06/09 02:23:49;;;;;;;10.82;8.23;;;;;;;;;;7334187;19;154055;-17
2022/06/09 02:26:21;;;;;;;9.80;7.90;;;;;;;;;;7334118;19;154571;-17
2022/06/09 02:28:52;;;;;;;13.70;9.60;;;;;;;;;;7333469;19;161878;-17
2022/06/09 02:31:25;;;;;;;11.95;8.32;;;;;;;;;;7333541;19;162509;-17
2022/06/09 02:33:59;;;;;;;11.13;8.20;;;;;;;;;;7331549;19;154733;-17
2022/06/09 02:36:30;;;;;;;11.20;8.55;;;;;;;;;;7333569;19;153810;-17
2022/06/09 02:39:02;;;;;;;10.63;7.57;;;;;;;;;;7333351;19;161799;-17
2022/06/09 02:41:33;;;;;;;10.13;7.53;;;;;;;;;;7333860;19;162302;-17
2022/06/09 02:44:04;;;;;;;11.60;8.32;;;;;;;;;;7333712;19;154113;-16
2022/06/09 02:46:36;;;;;;;9.68;7.82;;;;;;;;;;7335627;19;153552;-17
2022/06/09 02:49:09;;;;;;;11.18;7.78;;;;;;;;;;7333096;19;162049;-17
2022/06/09 02:51:43;;;;;;;11.18;8.07;;;;;;;;;;7332986;19;162471;-16
2022/06/09 02:54:14;;;;;;;9.13;7.53;;;;;;;;;;7330721;19;154416;-17
2022/06/09 02:56:45;;;;;;;9.90;7.97;;;;;;;;;;7332109;19;153544;-17
2022/06/09 02:59:18;;;;;;;10.63;7.57;;;;;;;;;;7331571;19;162003;-16
2022/06/09 03:01:49;;;;;;;11.35;8.00;;;;;;;;;;7332707;19;162282;-17
2022/06/09 03:04:23;;;;;;;9.95;7.60;;;;;;;;;;7333050;19;154398;-17
2022/06/09 03:06:54;;;;;;;11.65;7.80;;;;;;;;;;7332925;19;153565;-17
2022/06/09 03:09:26;;;;;;;10.02;6.60;;;;;;;;;;7332595;19;161906;-17
2022/06/09 03:11:57;;;;;;;10.10;7.93;;;;;;;;;;7333505;19;162732;-17
2022/06/09 03:14:28;;;;;;;10.43;7.82;;;;;;;;;;7330159;19;154108;-17
2022/06/09 03:16:59;;;;;;;10.63;6.88;;;;;;;;;;7332555;19;153508;-17
2022/06/09 03:19:33;;;;;;;10.02;7.15;;;;;;;;;;7332204;19;162129;-16
2022/06/09 03:22:05;;;;;;;9.25;6.93;;;;;;;;;;7332266;19;162303;-16
2022/06/09 03:24:36;;;;;;;9.93;7.88;;;;;;;;;;7332470;19;154080;-17
2022/06/09 03:27:07;;;;;;;8.25;6.82;;;;;;;;;;7332159;19;153517;-17
2022/06/09 03:29:38;;;;;;;9.05;7.47;;;;;;;;;;7331889;19;161990;-17
2022/06/09 03:32:10;;;;;;;9.32;7.25;;;;;;;;;;7331704;19;162442;-17
2022/06/09 03:34:44;;;;;;;9.87;6.83;;;;;;;;;;7328616;19;154130;-17
2022/06/09 03:37:15;;;;;;;8.77;6.80;;;;;;;;;;7332090;19;153907;-17
2022/06/09 03:39:47;;;;;;;9.35;6.53;;;;;;;;;;7330486;19;161858;-18
2022/06/09 03:42:18;;;;;;;9.40;7.38;;;;;;;;;;7333588;19;162605;-17
2022/06/09 03:44:49;;;;;;;9.82;7.60;;;;;;;;;;7331763;19;154222;-17
2022/06/09 03:47:22;;;;;;;7.55;6.72;;;;;;;;;;7331722;19;153557;-17
2022/06/09 03:49:55;;;;;;;;;;;;;;;;;;7331921;19;161926;-17
2022/06/09 03:52:26;;;;;;;8.70;7.10;;;;;;;;;;7331357;19;162721;-17
2022/06/09 03:54:58;;;;;;;7.72;6.93;;;;;;;;;;7328558;19;154088;-17
2022/06/09 03:57:29;;;;;;;8.98;7.65;;;;;;;;;;7330833;19;153587;-17
2022/06/09 04:00:00;;;;;;;9.27;7.05;;;;;;;;;;7331166;19;161957;-17
2022/06/09 04:02:34;;;;;;;8.98;7.22;;;;;;;;;;7331376;19;162442;-17
2022/06/09 04:05:09;;;;;;;11.00;7.72;;;;;;;;;;7331731;19;154334;-17
2022/06/09 04:07:40;;;;;;;9.48;7.13;;;;;;;;;;7331588;19;153691;-17
2022/06/09 04:10:16;;;;;;;8.20;6.10;;;;;;;;;;7330794;19;162442;-17
2022/06/09 04:12:47;;;;;;;7.85;6.28;;;;;;;;;;7334019;19;162414;-17
2022/06/09 04:15:19;;;;;;;8.40;6.70;;;;;;;;;;7331285;19;154063;-17
2022/06/09 04:17:52;;;;;;;9.98;6.95;;;;;;;;;;7334905;19;153336;-17
2022/06/09 04:20:28;;;;;;;7.57;6.65;;;;;;;;;;7329760;19;161875;-16
2022/06/09 04:22:59;;;;;;;8.82;6.65;;;;;;;;;;7329581;19;162404;-16
2022/06/09 04:25:31;;;;;;;10.80;7.15;;;;;;;;;;7331148;19;154083;-18
2022/06/09 04:28:02;;;;;;;8.73;6.72;;;;;;;;;;7330780;19;153500;-17
2022/06/09 04:30:33;;;;;;;9.13;7.03;;;;;;;;;;7330495;19;162002;-17
2022/06/09 04:33:05;;;;;;;9.23;6.68;;;;;;;;;;7330055;19;162217;-17
2022/06/09 04:35:39;;;;;;;9.15;6.45;;;;;;;;;;7330819;19;154118;-17
2022/06/09 04:38:12;;;;;;;7.10;6.40;;;;;;;;;;7330597;19;153348;-17
2022/06/09 04:40:44;;;;;;;8.65;6.53;;;;;;;;;;7329037;19;161804;-17
2022/06/09 04:43:15;;;;;;;10.40;6.80;;;;;;;;;;7332658;19;162155;-16
2022/06/09 04:45:46;;;;;;;7.78;6.47;;;;;;;;;;7330418;19;154442;-16
2022/06/09 04:48:19;;;;;;;8.70;6.00;;;;;;;;;;7333570;19;153663;-16
2022/06/09 04:50:53;;;;;;;8.82;6.40;;;;;;;;;;7330000;19;161835;-16
2022/06/09 04:53:25;;;;;;;7.43;5.60;;;;;;;;;;7329163;19;162507;-17
2022/06/09 04:55:56;;;;;;;8.77;6.82;;;;;;;;;;7330068;19;154334;-16
2022/06/09 04:58:28;;;;;;;10.13;6.47;;;;;;;;;;7328820;19;153638;-18
2022/06/09 05:00:59;;;;;;;7.13;5.60;;;;;;;;;;7329621;19;161930;-16
2022/06/09 05:03:32;;;;;;;9.63;6.45;;;;;;;;;;7329499;19;162431;-17
2022/06/09 05:06:06;;;;;;;8.25;6.22;;;;;;;;;;7330046;19;154155;-16
2022/06/09 05:08:38;;;;;;;7.78;5.78;;;;;;;;;;7329706;19;153489;-16
2022/06/09 05:11:10;;;;;;;8.15;6.57;;;;;;;;;;7329369;19;161798;-17
2022/06/09 05:13:41;;;;;;;8.20;6.75;;;;;;;;;;7327674;19;162370;-17
2022/06/09 05:16:13;;;;;;;9.45;6.75;;;;;;;;;;7328402;19;154274;-18
2022/06/09 05:18:45;;;;;;;9.03;6.60;;;;;;;;;;7329488;19;153571;-17
2022/06/09 05:21:18;;;;;;;8.38;6.65;;;;;;;;;;7329104;19;161854;-18
2022/06/09 05:23:50;;;;;;;9.25;6.20;;;;;;;;;;7328884;19;162657;-18
2022/06/09 05:26:21;;;;;;;8.27;6.22;;;;;;;;;;7329192;19;154004;-17
2022/06/09 05:28:52;;;;;;;8.40;6.07;;;;;;;;;;7329058;19;153587;-18
2022/06/09 05:31:23;;;;;;;9.07;6.15;;;;;;;;;;7328419;19;162497;-17
2022/06/09 05:33:54;;;;;;;8.18;6.50;;;;;;;;;;7328342;19;162640;-17
2022/06/09 05:36:28;;;;;;;8.77;6.63;;;;;;;;;;7329071;19;154143;-18
2022/06/09 05:47:10;;;;;;;7.65;5.63;;;;;;;;;;7328667;19;154143;-15
2022/06/09 05:49:43;;;;;;;7.03;5.85;;;;;;;;;;7328472;19;153603;-16
2022/06/09 05:52:17;;;;;;;8.82;6.45;;;;;;;;;;7326738;19;161909;-16
2022/06/09 05:54:48;;;;;;;8.75;6.72;;;;;;;;;;7327674;19;162829;-17
2022/06/09 05:57:20;;;;;;;7.25;5.90;;;;;;;;;;7335272;19;154375;-18
2022/06/09 05:59:52;;;;;;;6.95;5.65;;;;;;;;;;7335116;19;153365;-16
2022/06/09 06:02:26;;;;;;;8.43;6.30;;;;;;;;;;7334547;19;162017;-17
2022/06/09 06:04:57;;;;;;;7.15;5.90;;;;;;;;;;7334595;19;162574;-17
2022/06/09 06:07:29;;;;;;;9.38;6.65;;;;;;;;;;7334823;19;154081;-17
2022/06/09 06:10:00;;;;;;;7.53;6.60;;;;;;;;;;7334661;19;153529;-16
2022/06/09 06:12:32;;;;;;;7.50;6.20;;;;;;;;;;7338361;19;162002;-16
2022/06/09 06:15:03;;;;;;;6.85;6.10;;;;;;;;;;7333210;19;162523;-17
2022/06/09 06:17:34;;;;;;;7.00;5.47;;;;;;;;;;7334583;19;153975;-16
2022/06/09 06:20:05;;;;;;;7.45;6.22;;;;;;;;;;7334648;19;154021;-18
2022/06/09 06:22:39;;;;;;;7.95;6.25;;;;;;;;;;7334242;19;161931;-18
2022/06/09 06:25:11;;;;;;;8.55;6.38;;;;;;;;;;7333975;19;162498;-16
2022/06/09 06:27:43;;;;;;;6.25;5.63;;;;;;;;;;7334286;19;154060;-16
2022/06/09 06:30:15;;;;;;;7.95;5.95;;;;;;;;;;7334126;19;153543;-16
2022/06/09 06:32:46;;;;;;;7.60;6.20;;;;;;;;;;7333737;19;161794;-16
2022/06/09 06:35:18;;;;;;;7.35;6.22;;;;;;;;;;7332430;19;162495;-16
2022/06/09 06:37:52;;;;;;;6.57;5.78;;;;;;;;;;7334619;19;154226;-18
2022/06/09 06:40:24;;;;;;;6.95;6.18;;;;;;;;;;7332469;19;153950;-17
2022/06/09 06:42:56;;;;;;;10.07;6.30;;;;;;;;;;7336758;19;161796;-16
2022/06/09 06:45:28;;;;;;;9.63;6.03;;;;;;;;;;7333404;19;162294;-18
2022/06/09 06:47:59;;;;;;;9.47;7.13;;;;;;;;;;7333864;19;154237;-17
2022/06/09 06:50:30;;;;;;;9.55;5.85;;;;;;;;;;7333678;19;153747;-17
2022/06/09 06:53:05;;;;;;;7.82;6.00;;;;;;;;;;7333306;19;162025;-17
2022/06/09 06:55:36;;;;;;;7.80;6.10;;;;;;;;;;7331989;19;162669;-17
2022/06/09 06:58:08;;;;;;;7.35;6.07;;;;;;;;;;7332269;19;154447;-17
2022/06/09 07:00:39;;;;;;;5.82;5.28;;;;;;;;;;7333265;19;153540;-16
2022/06/09 07:03:13;;;;;;;7.82;5.80;;;;;;;;;;7331667;19;161886;-17
2022/06/09 07:05:55;;;;;;;8.15;6.35;;;;;;;;;;7331801;19;162516;-17
2022/06/09 07:08:29;;;;;;;8.23;6.13;;;;;;;;;;7333251;19;154303;-17
2022/06/09 07:11:01;;;;;;;8.50;6.18;;;;;;;;;;7332929;19;153533;-17
2022/06/09 07:13:32;;;;;;;9.30;5.80;;;;;;;;;;7336874;19;162000;-16
2022/06/09 07:16:03;;;;;;;8.85;5.93;;;;;;;;;;7331153;19;162373;-17
2022/06/09 07:18:37;;;;;;;9.48;6.28;;;;;;;;;;7332940;19;154212;-16
2022/06/09 07:21:10;;;;;;;7.03;5.45;;;;;;;;;;7332516;19;154138;-16
2022/06/09 07:23:45;;;;;;;7.80;5.47;;;;;;;;;;7332037;19;162012;-16
2022/06/09 07:26:16;;;;;;;8.73;5.85;;;;;;;;;;7332123;19;162432;-16
2022/06/09 07:28:47;;;;;;;9.52;5.53;;;;;;;;;;7332486;19;154348;-17
2022/06/09 07:31:19;;;;;;;7.88;5.97;;;;;;;;;;7332311;19;153601;-17
2022/06/09 07:33:51;;;;;;;8.50;5.70;;;;;;;;;;7331934;19;162438;-17
2022/06/09 07:36:25;;;;;;;7.03;5.68;;;;;;;;;;7330523;19;162444;-16
2022/06/09 07:38:58;;;;;;;9.10;6.35;;;;;;;;;;7332394;19;154122;-17
2022/06/09 07:41:30;;;;;;;8.02;6.38;;;;;;;;;;7332504;19;153534;-16
2022/06/09 07:44:03;;;;;;;6.60;5.40;;;;;;;;;;7331921;19;161975;-16
2022/06/09 07:46:36;;;;;;;11.27;6.55;;;;;;;;;;7331509;19;162448;-16
2022/06/09 07:49:07;;;;;;;7.60;5.77;;;;;;;;;;7332230;19;154213;-16
2022/06/09 07:51:40;;;;;;;7.87;5.70;;;;;;;;;;7332017;19;155143;-16
2022/06/09 07:54:17;;;;;;;8.18;6.13;;;;;;;;;;7330240;19;161862;-16
2022/06/09 07:56:48;;;;;;;9.57;5.88;;;;;;;;;;7329901;19;162544;-17
2022/06/09 07:59:19;;;;;;;8.63;6.30;;;;;;;;;;7330597;19;154125;-16
2022/06/09 08:01:51;;;;;;;8.13;5.55;;;;;;;;;;7331589;19;153531;-16
2022/06/09 08:04:25;;;;;;;8.30;6.20;;;;;;;;;;7331260;19;162022;-19
2022/06/09 08:06:57;;;;;;;7.97;6.25;;;;;;;;;;7331146;19;162399;-17
2022/06/09 08:09:31;;;;;;;8.60;6.13;;;;;;;;;;7330930;19;154145;-17
2022/06/09 08:12:02;;;;;;;6.90;5.97;;;;;;;;;;7333094;19;153628;-17
2022/06/09 08:14:33;;;;;;;8.32;5.68;;;;;;;;;;7330943;19;161936;-17
2022/06/09 08:17:05;;;;;;;9.05;6.07;;;;;;;;;;7327006;19;162520;-17
2022/06/09 08:19:36;;;;;;;8.13;6.55;;;;;;;;;;7330002;19;154162;-17
2022/06/09 08:22:07;;;;;;;9.63;5.88;;;;;;;;;;7331009;19;153543;-17
2022/06/09 08:24:41;;;;;;;8.07;6.25;;;;;;;;;;7328908;19;162055;-16
2022/06/09 08:27:16;;;;;;;8.77;6.13;;;;;;;;;;7328808;19;162736;-17
2022/06/09 08:29:47;;;;;;;9.98;6.15;;;;;;;;;;7330892;19;154130;-17
2022/06/09 08:32:18;;;;;;;7.72;5.65;;;;;;;;;;7330719;19;153646;-17
2022/06/09 08:34:49;;;;;;;9.57;6.40;;;;;;;;;;7330559;19;161886;-16
2022/06/09 08:37:21;;;;;;;7.85;5.90;;;;;;;;;;7327370;19;162550;-16
2022/06/09 08:39:55;;;;;;;7.88;5.95;;;;;;;;;;7330581;19;154039;-16
2022/06/09 08:42:35;;;;;;;9.93;6.28;;;;;;;;;;7332118;19;153736;-16
2022/06/09 08:45:12;;;;;;;8.63;6.38;;;;;;;;;;7329936;19;163106;-16
2022/06/09 08:47:47;;;;;;;10.35;6.65;;;;;;;;;;7329560;19;162413;-16
2022/06/09 08:50:21;;;;;;;8.88;6.40;;;;;;;;;;7330157;19;154328;-16
2022/06/09 08:52:58;;;;;;;8.27;6.28;;;;;;;;;;7328884;19;153616;-17
2022/06/09 08:55:37;;;;;;;7.25;6.55;;;;;;;;;;7326679;19;162273;-17
2022/06/09 08:58:18;;;;;;;9.98;6.32;;;;;;;;;;7327367;19;162508;-16
2022/06/09 09:00:53;;;;;;;8.63;6.43;;;;;;;;;;7330070;19;154410;-19
2022/06/09 09:03:31;;;;;;;8.45;6.40;;;;;;;;;;7328799;19;153566;-16
2022/06/09 09:06:07;;;;;;;7.82;6.60;;;;;;;;;;7329263;19;162113;-16
2022/06/09 09:08:39;;;;;;;9.07;6.03;;;;;;;;;;7328167;19;162416;-17
2022/06/09 09:11:38;;;;;;;9.70;6.80;;;;;;;;;;7329604;19;154281;-16
2022/06/09 09:14:17;;;;;;;8.13;6.60;;;;;;;;;;7328227;19;153588;-16
2022/06/09 09:16:57;;;;;;;9.30;6.78;;;;;;;;;;7328584;19;161593;-16
2022/06/09 09:19:39;;;;;;;7.43;6.38;;;;;;;;;;7329151;19;162303;-16
2022/06/09 09:22:20;;;;;;;9.23;6.40;;;;;;;;;;7329515;19;154160;-17
2022/06/09 09:25:02;;;;;;;8.45;6.45;;;;;;;;;;7329259;19;153556;-17
2022/06/09 09:27:47;;;;;;;6.97;6.00;;;;;;;;;;7328956;19;162082;-17
2022/06/09 09:30:22;;;;;;;9.07;7.22;;;;;;;;;;7334919;19;162524;-16
2022/06/09 09:32:58;;;;;;;10.07;6.85;;;;;;;;;;7335679;19;154230;-17
2022/06/09 09:35:34;;;;;;;8.15;7.28;;;;;;;;;;7335911;19;153625;-17
2022/06/09 09:38:05;;;;;;;11.73;7.30;;;;;;;;;;7333982;19;161781;-16
2022/06/09 09:40:39;;;;;;;9.20;7.07;;;;;;;;;;7335422;19;162442;-16
2022/06/09 09:43:16;;;;;;;7.45;6.15;;;;;;;;;;7339233;19;154387;-16
2022/06/09 09:45:49;;;;;;;9.10;6.75;;;;;;;;;;7335233;19;153816;-17
2022/06/09 09:48:35;;;;;;;12.18;6.50;;;;;;;;;;7333843;19;161841;-17
2022/06/09 09:51:11;;;;;;;9.02;5.90;;;;;;;;;;7334883;19;162510;-17
2022/06/09 09:53:55;;;;;;;9.98;6.65;;;;;;;;;;7334773;19;154106;-21
2022/06/09 09:56:37;;;;;;;8.93;6.35;;;;;;;;;;7335055;19;153562;-16
2022/06/09 09:59:26;;;;;;;8.35;6.72;;;;;;;;;;7332503;19;161886;-17
2022/06/09 10:08:41;;;;;;;7.00;6.10;;;;;;;;;;7334962;19;153651;-17
2022/06/09 10:14:07;;;;;;;6.53;5.43;;;;;;;;;;7334426;19;162619;-17
2022/06/09 10:16:57;;;;;;;9.65;6.32;;;;;;;;;;7333259;19;154174;-17
2022/06/09 10:19:43;;;;;;;7.80;6.32;;;;;;;;;;7334500;19;154887;-16
2022/06/09 10:22:22;;;;;;;10.70;6.10;;;;;;;;;;7334214;19;162128;-17
2022/06/09 10:25:21;;;;;;;11.10;5.75;;;;;;;;;;7333881;19;162659;-17
2022/06/09 10:28:01;;;;;;;7.22;5.57;;;;;;;;;;7333187;19;154463;-16
2022/06/09 10:30:38;;;;;;;10.38;5.93;;;;;;;;;;7334132;19;153623;-17
2022/06/09 10:33:27;;;;;;;8.73;5.55;;;;;;;;;;7333938;19;161792;-16
2022/06/09 10:36:02;;;;;;;6.25;5.60;;;;;;;;;;7333650;19;162369;-17
2022/06/09 10:38:37;;;;;;;8.05;5.90;;;;;;;;;;7332567;19;154181;-16
2022/06/09 10:41:22;;;;;;;5.95;5.35;;;;;;;;;;7335321;19;153758;-17
2022/06/09 10:44:02;;;;;;;6.70;4.95;;;;;;;;;;7333209;19;161991;-16
2022/06/09 10:46:39;;;;;;;7.05;5.15;;;;;;;;;;7333407;19;162110;-16
2022/06/09 10:55:24;;;;;;;4.80;4.20;;;;;;;;;;7331313;19;161964;-16
2022/06/09 10:58:03;;;;;;;6.05;4.70;;;;;;;;;;7332304;19;162436;-16
2022/06/09 11:00:37;;;;;;;5.80;5.15;;;;;;;;;;7333164;19;154079;-16
2022/06/09 11:03:15;;;;;;;7.43;5.10;;;;;;;;;;7333236;19;153322;-17
2022/06/09 11:06:14;;;;;;;6.28;4.15;;;;;;;;;;7332998;19;161881;-17
2022/06/09 11:08:57;;;;;;;6.20;5.00;;;;;;;;;;7332789;19;162216;-16
2022/06/09 11:11:37;;;;;;;5.30;4.80;;;;;;;;;;7333603;19;154077;-16
2022/06/09 11:14:17;;;;;;;6.47;4.55;;;;;;;;;;7333120;19;153565;-16
2022/06/09 11:17:01;;;;;;;5.18;4.68;;;;;;;;;;7331749;19;161832;-16
2022/06/09 11:19:53;;;;;;;6.28;5.32;;;;;;;;;;7329909;19;163164;-16
2022/06/09 11:22:34;;;;;;;5.28;4.35;;;;;;;;;;7332781;19;154070;-17
2022/06/09 11:25:23;;;;;;;4.63;4.15;;;;;;;;;;7332662;19;153707;-16
2022/06/09 11:28:08;;;;;;;5.47;4.70;;;;;;;;;;7331819;19;161809;-16
2022/06/09 11:30:53;;;;;;;5.55;4.20;;;;;;;;;;7330939;19;162650;-16
2022/06/09 11:33:38;;;;;;;5.00;4.40;;;;;;;;;;7332487;19;154061;-17
2022/06/09 11:36:18;;;;;;;5.35;4.82;;;;;;;;;;7331078;19;153715;-16
2022/06/09 11:38:59;;;;;;;5.43;4.18;;;;;;;;;;7330606;19;162502;-17
2022/06/09 11:41:42;;;;;;;6.97;4.28;;;;;;;;;;7332408;19;162144;-17
2022/06/09 11:44:25;;;;;;;3.92;3.45;;;;;;;;;;7332233;19;154202;-16
2022/06/09 11:47:05;;;;;;;5.60;4.10;;;;;;;;;;7332033;19;153425;-17
2022/06/09 11:49:40;;;;;;;4.00;3.58;;;;;;;;;;7330437;19;161801;-17
2022/06/09 11:52:19;;;;;;;6.20;4.30;;;;;;;;;;7331618;19;162363;-16
2022/06/09 11:55:06;;;;;;;4.70;4.20;;;;;;;;;;7330574;19;154348;-16
2022/06/09 11:57:51;;;;;;;5.22;4.72;;;;;;;;;;7331776;19;153589;-16
2022/06/09 12:00:46;;;;;;;5.38;3.90;;;;;;;;;;7328696;19;161949;-16
2022/06/09 12:03:48;;;;;;;4.57;3.85;;;;;;;;;;7330245;19;162612;-16
2022/06/09 12:06:23;;;;;;;4.07;3.72;;;;;;;;;;7330243;19;154189;-17
2022/06/09 12:09:05;;;;;;;5.55;3.90;;;;;;;;;;7331249;19;153602;-17
2022/06/09 12:11:58;;;;;;;4.47;3.65;;;;;;;;;;7331661;19;162087;-17
2022/06/09 12:14:33;;;;;;;6.75;3.90;;;;;;;;;;7331086;19;162554;-17
2022/06/09 12:17:19;;;;;;;5.07;3.72;;;;;;;;;;7331008;19;154110;-17
2022/06/09 12:19:57;;;;;;;3.80;3.38;;;;;;;;;;7327809;19;153635;-17
2022/06/09 12:22:50;;;;;;;4.03;3.45;;;;;;;;;;7330384;19;161976;-17
2022/06/09 12:25:33;;;;;;;4.40;4.00;;;;;;;;;;7332960;19;162443;-17
2022/06/09 12:28:29;;;;;;;;;;;;;;;;;;7331147;19;154149;-17
2022/06/09 12:31:10;;;;;;;6.22;3.60;;;;;;;;;;7330619;19;153447;-18
2022/06/09 12:33:46;;;;;;;4.90;3.40;;;;;;;;;;7330282;19;162331;-17
2022/06/09 12:36:36;;;;;;;4.25;3.33;;;;;;;;;;7329065;19;162903;-18
2022/06/09 12:39:18;;;;;;;4.60;3.42;;;;;;;;;;7328556;19;154105;-17
2022/06/09 12:41:54;;;;;;;6.07;3.87;;;;;;;;;;7331556;19;153337;-16
2022/06/09 12:44:34;;;;;;;3.95;3.33;;;;;;;;;;7330259;19;161860;-15
2022/06/09 12:47:16;;;;;;;3.67;3.17;;;;;;;;;;7329787;19;162640;-15
2022/06/09 12:49:50;;;;;;;3.53;3.22;;;;;;;;;;7333563;19;154103;-16
2022/06/09 12:52:26;;;;;;;4.38;3.80;;;;;;;;;;7330023;19;153476;-16
2022/06/09 12:55:00;;;;;;;4.43;3.20;;;;;;;;;;7327565;19;161869;-16
2022/06/09 12:57:34;;;;;;;4.40;3.42;;;;;;;;;;7329478;19;163568;-16
2022/06/09 13:00:17;;;;;;;3.72;2.97;;;;;;;;;;7328250;19;154148;-17
2022/06/09 13:02:48;;;;;;;4.68;4.10;;;;;;;;;;7329818;19;153828;-18
2022/06/09 13:05:24;;;;;;;5.88;3.53;;;;;;;;;;7328541;19;161881;-18
2022/06/09 13:07:57;;;;;;;4.70;3.25;;;;;;;;;;7328999;19;162372;-18
2022/06/09 13:10:33;;;;;;;6.95;4.60;;;;;;;;;;7329732;19;154162;-17
2022/06/09 13:13:07;;;;;;;20.20;7.57;;;;;;;;;;7333061;19;153504;-17
2022/06/09 13:15:46;;;;;;;29.02;10.85;;;;;;;;;;7327648;19;162063;-17
2022/06/09 13:18:20;;;;;;;29.08;15.65;;;;;;;;;;7328928;19;162440;-17
2022/06/09 13:20:54;;;;;;;37.83;14.98;;;;;;;;;;7326841;19;153960;-17
2022/06/09 13:23:26;;;;;;;40.80;17.08;;;;;;;;;;7329233;19;153714;-17
2022/06/09 13:25:58;;;;;;;36.33;16.70;;;;;;;;;;7328990;19;162097;-17
2022/06/09 13:28:48;;;;;;;35.78;15.70;;;;;;;;;;7328753;19;162553;-16
2022/06/09 13:31:36;;;;;;;40.75;15.52;;;;;;;;;;7328975;19;154032;-15
2022/06/09 13:34:19;;;;;;;31.30;14.10;;;;;;;;;;7328881;19;153860;-17
2022/06/09 13:37:05;;;;;;;29.08;15.25;;;;;;;;;;7326919;19;161924;-17
2022/06/09 13:39:39;;;;;;;35.03;14.68;;;;;;;;;;7327528;19;162262;-16
2022/06/09 13:42:27;;;;;;;29.27;14.13;;;;;;;;;;7330191;19;154005;-15
2022/06/09 13:45:16;;;;;;;32.13;14.25;;;;;;;;;;7328505;19;153635;-16
2022/06/09 13:48:15;;;;;;;30.52;12.93;;;;;;;;;;7327801;19;162435;-16
2022/06/09 13:50:49;;;;;;;22.67;12.10;;;;;;;;;;7327919;19;162565;-17
2022/06/09 13:53:32;;;;;;;25.65;11.77;;;;;;;;;;7328216;19;154089;-16
2022/06/09 13:56:05;;;;;;;27.70;12.37;;;;;;;;;;7330765;19;153407;-17
2022/06/09 13:58:36;;;;;;;;;;;;;;;;;;7328338;19;161825;-16
2022/06/09 14:01:09;;;;;;;19.02;9.27;;;;;;;;;;7325893;19;162321;-17
2022/06/09 14:03:46;;;;;;;22.08;10.95;;;;;;;;;;7327698;19;154454;-17
2022/06/09 14:06:20;;;;;;;16.73;10.65;;;;;;;;;;7327864;19;153567;-17
2022/06/09 14:08:56;;;;;;;22.45;9.63;;;;;;;;;;7327325;19;162142;-17
2022/06/09 14:11:30;;;;;;;20.92;9.38;;;;;;;;;;7327583;19;162492;-16
2022/06/09 14:14:06;;;;;;;17.80;8.27;;;;;;;;;;7327496;19;154188;-17
2022/06/09 14:16:42;;;;;;;19.60;9.05;;;;;;;;;;7331593;19;153189;-17
2022/06/09 14:19:19;;;;;;;15.45;7.65;;;;;;;;;;7334158;19;162111;-16
2022/06/09 14:21:50;;;;;;;13.77;7.20;;;;;;;;;;7331718;19;162752;-17
2022/06/09 14:24:24;;;;;;;12.68;7.18;;;;;;;;;;7334280;19;154091;-17
2022/06/09 14:26:56;;;;;;;10.52;7.15;;;;;;;;;;7333097;19;153758;-17
2022/06/09 14:29:33;;;;;;;16.55;7.30;;;;;;;;;;7332571;19;162098;-17
2022/06/09 14:32:04;;;;;;;13.77;7.25;;;;;;;;;;7332296;19;162534;-17
2022/06/09 14:34:38;;;;;;;12.73;6.78;;;;;;;;;;7334268;19;154091;-15
2022/06/09 14:37:10;;;;;;;11.45;6.75;;;;;;;;;;7333686;19;153820;-16
2022/06/09 14:39:41;;;;;;;10.18;6.32;;;;;;;;;;7333607;19;161916;-16
2022/06/09 14:42:15;;;;;;;9.43;5.72;;;;;;;;;;7334823;19;162491;-15
2022/06/09 14:44:47;;;;;;;11.95;6.13;;;;;;;;;;7333776;19;154108;-16
2022/06/09 14:47:21;;;;;;;11.23;5.70;;;;;;;;;;7333925;19;153651;-16
2022/06/09 14:49:54;;;;;;;7.57;5.03;;;;;;;;;;7333211;19;161839;-15
2022/06/09 14:52:26;;;;;;;9.10;5.00;;;;;;;;;;7333292;19;162403;-15
2022/06/09 14:54:57;;;;;;;9.65;5.07;;;;;;;;;;7332173;19;154072;-16
2022/06/09 14:57:28;;;;;;;9.82;5.50;;;;;;;;;;7333631;19;153687;-16
2022/06/09 14:59:59;;;;;;;9.13;4.63;;;;;;;;;;7333277;19;161878;-16
2022/06/09 15:02:31;;;;;;;9.18;4.30;;;;;;;;;;7330630;19;162560;-16
2022/06/09 15:05:06;;;;;;;6.38;4.82;;;;;;;;;;7331997;19;154002;-15
2022/06/09 15:07:38;;;;;;;6.40;4.32;;;;;;;;;;7333053;19;153528;-16
2022/06/09 15:10:10;;;;;;;7.70;4.30;;;;;;;;;;7332800;19;161872;-15
2022/06/09 15:12:44;;;;;;;7.55;4.13;;;;;;;;;;7334131;19;162585;-16
2022/06/09 15:15:16;;;;;;;5.25;3.67;;;;;;;;;;7332882;19;154403;-15
2022/06/09 15:17:48;;;;;;;6.93;4.10;;;;;;;;;;7332873;19;153534;-15
2022/06/09 15:20:25;;;;;;;5.65;3.90;;;;;;;;;;7332100;19;162214;-15
2022/06/09 15:22:56;;;;;;;7.53;3.67;;;;;;;;;;7332380;19;162459;-19
2022/06/09 15:25:29;;;;;;;5.78;3.40;;;;;;;;;;7332704;19;154074;-16
2022/06/09 15:28:00;;;;;;;4.13;3.17;;;;;;;;;;7332006;19;153583;-16
2022/06/09 15:30:34;;;;;;;4.47;3.05;;;;;;;;;;7330573;19;162042;-15
2022/06/09 15:33:06;;;;;;;4.70;3.10;;;;;;;;;;7331902;19;162467;-15
2022/06/09 15:35:41;;;;;;;5.70;3.40;;;;;;;;;;7332205;19;154033;-15
2022/06/09 15:38:13;;;;;;;3.97;2.88;;;;;;;;;;7332186;19;153487;-15